createdAt,value
2023-03-26T00:02:04.587Z,8.10
2023-03-26T00:04:34.588Z,8.10
2023-03-26T00:07:03.262Z,8.10
2023-03-26T00:09:31.434Z,8.10
2023-03-26T00:11:59.177Z,8.20
2023-03-26T00:14:27.090Z,8.10
2023-03-26T00:16:55.083Z,8.20
2023-03-26T00:19:23.021Z,8.20
2023-03-26T00:21:51.665Z,8.30
2023-03-26T00:24:20.238Z,8.20
2023-03-26T00:26:53.579Z,8.20
2023-03-26T00:29:28.160Z,8.30
2023-03-26T00:31:56.162Z,8.20
2023-03-26T00:34:24.979Z,8.20
2023-03-26T00:36:56.148Z,8.20
2023-03-26T00:39:25.823Z,8.20
2023-03-26T00:41:54.912Z,8.10
2023-03-26T00:44:23.076Z,8.10
2023-03-26T00:46:50.912Z,8.00
2023-03-26T00:49:18.965Z,8.00
2023-03-26T00:51:47.089Z,7.90
2023-03-26T00:54:14.783Z,7.90
2023-03-26T00:56:42.737Z,7.80
2023-03-26T00:59:11.150Z,7.80
2023-03-26T01:01:39.984Z,7.80
2023-03-26T01:04:34.829Z,7.80
2023-03-26T01:07:17.047Z,7.80
2023-03-26T01:09:50.568Z,7.80
2023-03-26T01:12:34.261Z,7.80
2023-03-26T01:15:04.122Z,7.90
2023-03-26T01:17:34.417Z,7.90
2023-03-26T01:20:26.917Z,8.00
2023-03-26T01:23:06.466Z,8.10
2023-03-26T01:25:49.920Z,8.10
2023-03-26T01:28:20.398Z,8.10
2023-03-26T01:31:25.369Z,8.20
2023-03-26T01:34:23.631Z,8.20
2023-03-26T01:37:25.556Z,8.20
2023-03-26T01:40:13.459Z,8.20
2023-03-26T01:43:07.103Z,8.20
2023-03-26T01:45:42.796Z,8.30
2023-03-26T01:48:13.177Z,8.30
2023-03-26T01:50:41.607Z,8.30
2023-03-26T01:53:14.005Z,8.30
2023-03-26T01:56:12.922Z,8.30
2023-03-26T01:59:23.211Z,8.30
2023-03-26T02:02:10.010Z,8.30
2023-03-26T02:05:26.725Z,8.20
2023-03-26T02:08:35.934Z,8.20
2023-03-26T02:11:16.644Z,8.10
2023-03-26T02:13:47.350Z,7.90
2023-03-26T02:16:20.712Z,7.80
2023-03-26T02:18:55.895Z,7.80
2023-03-26T02:21:27.197Z,7.80
2023-03-26T02:24:03.322Z,7.80
2023-03-26T02:26:37.889Z,7.80
2023-03-26T02:29:10.713Z,7.80
2023-03-26T02:31:41.000Z,7.70
2023-03-26T02:34:08.979Z,7.60
2023-03-26T02:36:39.141Z,7.60
2023-03-26T02:39:08.073Z,7.60
2023-03-26T02:41:41.961Z,7.60
2023-03-26T02:44:12.150Z,7.60
2023-03-26T02:47:15.522Z,7.60
2023-03-26T02:49:44.273Z,7.70
2023-03-26T02:52:18.864Z,7.70
2023-03-26T02:54:48.855Z,7.70
2023-03-26T02:57:26.881Z,7.70
2023-03-26T03:00:18.391Z,7.70
2023-03-26T03:02:48.306Z,7.80
2023-03-26T03:05:43.280Z,7.80
2023-03-26T03:08:28.608Z,7.70
2023-03-26T03:11:25.070Z,7.70
2023-03-26T03:13:54.148Z,7.60
2023-03-26T03:16:31.961Z,7.60
2023-03-26T03:19:06.366Z,7.60
2023-03-26T03:21:42.869Z,7.60
2023-03-26T03:24:14.037Z,7.50
2023-03-26T03:26:46.324Z,7.40
2023-03-26T03:29:24.001Z,7.20
2023-03-26T03:31:51.783Z,7.10
2023-03-26T03:34:39.323Z,6.90
2023-03-26T03:37:07.834Z,6.80
2023-03-26T03:39:48.238Z,6.70
2023-03-26T03:42:19.990Z,6.60
2023-03-26T03:44:49.634Z,6.50
2023-03-26T03:47:43.957Z,6.50
2023-03-26T03:50:14.236Z,6.40
2023-03-26T03:52:53.492Z,6.30
2023-03-26T03:55:24.159Z,6.30
2023-03-26T03:57:56.292Z,6.20
2023-03-26T04:00:25.768Z,6.20
2023-03-26T04:03:18.358Z,6.10
2023-03-26T04:05:55.382Z,6.10
2023-03-26T04:08:29.261Z,6.00
2023-03-26T04:10:57.727Z,6.00
2023-03-26T04:13:45.396Z,6.00
2023-03-26T04:16:40.889Z,6.00
2023-03-26T04:19:08.864Z,6.10
2023-03-26T04:21:38.119Z,6.20
2023-03-26T04:24:07.449Z,6.20
2023-03-26T04:26:53.948Z,6.30
2023-03-26T04:29:30.971Z,6.40
2023-03-26T04:32:06.598Z,6.40
2023-03-26T04:34:36.501Z,6.40
2023-03-26T04:37:34.513Z,6.50
2023-03-26T04:40:22.119Z,6.50
2023-03-26T04:42:54.845Z,6.60
2023-03-26T04:45:43.952Z,6.50
2023-03-26T04:48:15.569Z,6.40
2023-03-26T04:50:47.004Z,6.30
2023-03-26T04:53:22.263Z,6.30
2023-03-26T04:56:30.970Z,6.20
2023-03-26T04:59:35.091Z,6.20
2023-03-26T05:02:08.532Z,6.30
2023-03-26T05:04:50.119Z,6.30
2023-03-26T05:07:24.298Z,6.40
2023-03-26T05:09:57.610Z,6.40
2023-03-26T05:12:54.710Z,6.50
2023-03-26T05:15:34.339Z,6.50
2023-03-26T05:18:11.292Z,6.60
2023-03-26T05:20:46.510Z,6.70
2023-03-26T05:23:15.758Z,6.70
2023-03-26T05:25:47.369Z,6.80
2023-03-26T05:28:24.554Z,6.80
2023-03-26T05:30:58.902Z,6.90
2023-03-26T05:33:29.844Z,6.90
2023-03-26T05:36:15.618Z,6.90
2023-03-26T05:38:49.538Z,7.00
2023-03-26T05:41:37.434Z,7.00
2023-03-26T05:44:06.151Z,7.00
2023-03-26T05:46:34.199Z,7.00
2023-03-26T05:49:02.567Z,7.00
2023-03-26T05:51:34.627Z,7.10
2023-03-26T05:54:31.360Z,7.10
2023-03-26T05:57:18.862Z,7.10
2023-03-26T06:00:22.479Z,7.20
2023-03-26T06:02:57.456Z,7.20
2023-03-26T06:05:54.237Z,7.30
2023-03-26T06:08:39.761Z,7.30
2023-03-26T06:11:08.359Z,7.30
2023-03-26T06:13:41.952Z,7.30
2023-03-26T06:16:27.822Z,7.30
2023-03-26T06:19:05.641Z,7.40
2023-03-26T06:21:50.237Z,7.40
2023-03-26T06:24:22.319Z,7.50
2023-03-26T06:27:25.579Z,7.50
2023-03-26T06:30:22.206Z,7.50
2023-03-26T06:33:29.612Z,7.50
2023-03-26T06:35:59.978Z,7.50
2023-03-26T06:38:28.529Z,7.50
2023-03-26T06:41:06.359Z,7.50
2023-03-26T06:43:53.239Z,7.60
2023-03-26T06:46:41.153Z,7.60
2023-03-26T06:49:27.593Z,7.70
2023-03-26T06:52:13.577Z,7.70
2023-03-26T06:55:01.350Z,7.70
2023-03-26T06:57:53.842Z,7.80
2023-03-26T07:00:55.984Z,7.90
2023-03-26T07:03:43.883Z,7.90
2023-03-26T07:06:30.241Z,7.90
2023-03-26T07:09:16.785Z,8.00
2023-03-26T07:12:02.767Z,8.20
2023-03-26T07:14:57.892Z,8.30
2023-03-26T07:17:46.806Z,8.40
2023-03-26T07:20:24.548Z,8.50
2023-03-26T07:22:54.660Z,8.50
2023-03-26T07:25:55.625Z,8.60
2023-03-26T07:29:31.937Z,8.80
2023-03-26T07:32:58.813Z,8.70
2023-03-26T07:36:25.903Z,8.80
2023-03-26T07:40:02.168Z,8.80
2023-03-26T07:43:12.232Z,8.90
2023-03-26T07:45:59.327Z,8.90
2023-03-26T07:48:48.049Z,9.10
2023-03-26T07:51:36.753Z,9.20
2023-03-26T07:54:13.049Z,9.20
2023-03-26T07:57:40.647Z,9.30
2023-03-26T08:01:01.392Z,9.30
2023-03-26T08:04:23.640Z,9.40
2023-03-26T08:07:47.171Z,9.40
2023-03-26T08:11:22.485Z,9.50
2023-03-26T08:14:59.237Z,9.40
2023-03-26T08:17:54.484Z,9.30
2023-03-26T08:20:59.853Z,9.30
2023-03-26T08:24:13.123Z,9.40
2023-03-26T08:27:37.932Z,9.40
2023-03-26T08:30:23.505Z,9.60
2023-03-26T08:33:20.775Z,9.50
2023-03-26T08:35:50.309Z,9.50
2023-03-26T08:38:21.702Z,9.50
2023-03-26T08:41:18.948Z,9.50
2023-03-26T08:44:47.917Z,9.40
2023-03-26T08:47:41.908Z,9.40
2023-03-26T08:50:52.178Z,9.40
2023-03-26T08:54:23.694Z,9.30
2023-03-26T08:57:41.802Z,9.30
2023-03-26T09:01:08.747Z,9.20
2023-03-26T09:04:18.329Z,9.10
2023-03-26T09:07:45.411Z,9.10
2023-03-26T09:10:48.365Z,9.30
2023-03-26T09:14:16.579Z,9.30
2023-03-26T09:17:08.342Z,9.40
2023-03-26T09:20:28.506Z,9.20
2023-03-26T09:24:11.132Z,9.20
2023-03-26T09:26:51.705Z,9.20
2023-03-26T09:30:31.948Z,9.40
2023-03-26T09:34:00.616Z,9.40
2023-03-26T09:36:57.541Z,9.40
2023-03-26T09:40:24.953Z,9.40
2023-03-26T09:44:27.065Z,9.30
2023-03-26T09:47:46.126Z,9.30
2023-03-26T09:50:52.695Z,9.30
2023-03-26T09:54:29.626Z,9.30
2023-03-26T09:57:40.926Z,9.30
2023-03-26T10:00:49.878Z,9.30
2023-03-26T10:03:53.560Z,9.40
2023-03-26T10:06:42.848Z,9.20
2023-03-26T10:09:58.933Z,9.30
2023-03-26T10:13:14.468Z,9.10
2023-03-26T10:16:28.224Z,9.20
2023-03-26T10:19:49.183Z,9.20
2023-03-26T10:23:06.897Z,9.10
2023-03-26T10:27:09.159Z,9.10
2023-03-26T10:30:36.924Z,9.00
2023-03-26T10:34:32.136Z,8.80
2023-03-26T10:37:50.180Z,9.00
2023-03-26T10:41:21.391Z,9.10
2023-03-26T10:44:53.994Z,9.10
2023-03-26T10:48:07.133Z,9.10
2023-03-26T10:51:48.869Z,9.20
2023-03-26T10:54:58.493Z,9.20
2023-03-26T10:57:41.088Z,9.40
2023-03-26T11:00:25.746Z,9.30
2023-03-26T11:03:54.590Z,9.30
2023-03-26T11:07:04.937Z,9.50
2023-03-26T11:10:11.547Z,9.40
2023-03-26T11:13:12.668Z,9.40
2023-03-26T11:16:06.260Z,9.30
2023-03-26T11:19:07.806Z,9.30
2023-03-26T11:22:04.373Z,9.30
2023-03-26T11:25:05.663Z,9.30
2023-03-26T11:28:12.193Z,9.40
2023-03-26T11:32:02.227Z,9.30
2023-03-26T11:35:15.660Z,9.30
2023-03-26T11:37:56.942Z,9.30
2023-03-26T11:40:43.153Z,9.40
2023-03-26T11:43:36.400Z,9.60
2023-03-26T11:46:14.737Z,9.20
2023-03-26T11:48:59.485Z,8.90
2023-03-26T11:51:43.037Z,8.70
2023-03-26T11:54:13.581Z,8.50
2023-03-26T11:57:07.176Z,8.40
2023-03-26T11:59:59.238Z,8.30
2023-03-26T12:02:41.701Z,8.40
2023-03-26T12:05:36.773Z,8.40
2023-03-26T12:08:39.676Z,8.30
2023-03-26T12:11:13.761Z,8.30
2023-03-26T12:13:58.694Z,8.30
2023-03-26T12:16:27.844Z,8.30
2023-03-26T12:19:19.537Z,8.20
2023-03-26T12:21:53.913Z,8.30
2023-03-26T12:24:36.243Z,8.40
2023-03-26T12:27:21.979Z,8.50
2023-03-26T12:30:19.936Z,8.70
2023-03-26T12:32:53.068Z,8.40
2023-03-26T12:35:31.142Z,8.30
2023-03-26T12:38:35.609Z,8.20
2023-03-26T12:43:51.614Z,8.30
2023-03-26T12:44:55.610Z,8.50
2023-03-26T12:47:59.128Z,8.80
2023-03-26T12:51:04.064Z,9.00
2023-03-26T12:54:38.282Z,9.30
2023-03-26T12:57:32.357Z,9.70
2023-03-26T13:00:43.047Z,9.80
2023-03-26T13:04:04.632Z,9.90
2023-03-26T13:07:23.348Z,10.00
2023-03-26T13:10:37.316Z,10.10
2023-03-26T13:13:56.668Z,10.10
2023-03-26T13:16:54.273Z,10.10
2023-03-26T13:19:50.841Z,10.20
2023-03-26T13:22:45.844Z,10.20
2023-03-26T13:25:50.865Z,10.10
2023-03-26T13:28:55.533Z,9.30
2023-03-26T13:32:31.311Z,9.10
2023-03-26T13:35:50.350Z,9.30
2023-03-26T13:38:58.752Z,9.60
2023-03-26T13:42:18.677Z,9.30
2023-03-26T13:45:14.652Z,9.30
2023-03-26T13:47:51.155Z,9.30
2023-03-26T13:50:43.084Z,9.30
2023-03-26T13:54:06.680Z,9.50
2023-03-26T13:56:48.656Z,9.60
2023-03-26T14:00:16.655Z,9.60
2023-03-26T14:03:02.076Z,9.60
2023-03-26T14:05:54.978Z,9.50
2023-03-26T14:08:57.601Z,9.40
2023-03-26T14:11:59.692Z,9.30
2023-03-26T14:14:58.001Z,9.20
2023-03-26T14:17:48.660Z,9.20
2023-03-26T14:21:36.320Z,9.20
2023-03-26T14:25:01.920Z,9.20
2023-03-26T14:28:32.958Z,9.00
2023-03-26T14:32:03.823Z,9.00
2023-03-26T14:35:33.853Z,8.90
2023-03-26T14:38:59.842Z,8.80
2023-03-26T14:41:56.343Z,8.70
2023-03-26T14:45:22.719Z,8.80
2023-03-26T14:48:48.373Z,8.80
2023-03-26T14:51:41.496Z,8.80
2023-03-26T14:54:20.784Z,8.70
2023-03-26T14:57:18.827Z,8.70
2023-03-26T15:00:07.324Z,8.70
2023-03-26T15:03:30.505Z,8.70
2023-03-26T15:06:41.219Z,8.70
2023-03-26T15:10:17.743Z,8.70
2023-03-26T15:14:18.310Z,8.60
2023-03-26T15:17:41.807Z,8.50
2023-03-26T15:21:27.639Z,8.50
2023-03-26T15:24:55.427Z,8.30
2023-03-26T15:28:28.147Z,8.20
2023-03-26T15:32:10.575Z,8.20
2023-03-26T15:36:14.095Z,8.10
2023-03-26T15:39:30.682Z,8.10
2023-03-26T15:42:29.819Z,8.00
2023-03-26T15:45:49.972Z,8.00
2023-03-26T15:49:19.663Z,8.00
2023-03-26T15:52:28.243Z,7.90
2023-03-26T15:55:17.535Z,7.80
2023-03-26T15:58:27.093Z,7.70
2023-03-26T16:01:21.497Z,7.60
2023-03-26T16:04:15.002Z,7.70
2023-03-26T16:07:16.084Z,7.70
2023-03-26T16:10:33.897Z,7.70
2023-03-26T16:13:37.865Z,7.60
2023-03-26T16:16:07.148Z,7.50
2023-03-26T16:18:44.319Z,7.60
2023-03-26T16:21:39.720Z,7.60
2023-03-26T16:24:08.164Z,7.60
2023-03-26T16:26:45.616Z,7.50
2023-03-26T16:29:26.233Z,7.60
2023-03-26T16:32:29.049Z,7.60
2023-03-26T16:35:16.769Z,7.60
2023-03-26T16:38:04.653Z,7.60
2023-03-26T16:40:51.006Z,7.50
2023-03-26T16:44:13.879Z,7.50
2023-03-26T16:47:37.789Z,7.50
2023-03-26T16:51:29.077Z,7.80
2023-03-26T16:54:40.118Z,7.90
2023-03-26T16:57:39.912Z,7.90
2023-03-26T17:00:16.545Z,7.90
2023-03-26T17:03:17.696Z,7.90
2023-03-26T17:06:27.154Z,7.80
2023-03-26T17:10:32.035Z,7.80
2023-03-26T17:14:15.878Z,7.90
2023-03-26T17:17:28.632Z,7.90
2023-03-26T17:21:15.705Z,7.90
2023-03-26T17:24:23.813Z,7.80
2023-03-26T17:28:27.656Z,7.80
2023-03-26T17:32:08.640Z,7.80
2023-03-26T17:34:46.963Z,7.70
2023-03-26T17:37:18.969Z,7.70
2023-03-26T17:39:47.056Z,7.70
2023-03-26T17:42:33.406Z,7.70
2023-03-26T17:45:30.549Z,7.70
2023-03-26T17:48:24.042Z,7.80
2023-03-26T17:51:04.099Z,7.60
2023-03-26T17:53:42.049Z,7.60
2023-03-26T17:56:28.372Z,7.50
2023-03-26T17:59:11.242Z,7.60
2023-03-26T18:01:48.370Z,7.40
2023-03-26T18:04:31.249Z,7.50
2023-03-26T18:07:36.381Z,7.60
2023-03-26T18:10:52.862Z,7.50
2023-03-26T18:14:09.837Z,7.40
2023-03-26T18:16:57.009Z,7.30
2023-03-26T18:19:28.706Z,7.30
2023-03-26T18:22:07.501Z,7.30
2023-03-26T18:24:42.316Z,7.30
2023-03-26T18:27:22.620Z,7.20
2023-03-26T18:30:03.376Z,7.10
2023-03-26T18:32:34.094Z,7.10
2023-03-26T18:35:20.904Z,7.00
2023-03-26T18:37:59.120Z,7.00
2023-03-26T18:40:42.661Z,7.00
2023-03-26T18:43:34.477Z,7.10
2023-03-26T18:46:05.106Z,7.00
2023-03-26T18:48:34.938Z,7.00
2023-03-26T18:51:08.178Z,7.00
2023-03-26T18:54:03.159Z,7.00
2023-03-26T18:56:40.377Z,7.00
2023-03-26T18:59:38.117Z,7.10
2023-03-26T19:02:16.938Z,7.10
2023-03-26T19:04:49.332Z,7.00
2023-03-26T19:07:26.683Z,7.00
2023-03-26T19:09:56.804Z,7.00
2023-03-26T19:12:37.602Z,6.90
2023-03-26T19:15:14.245Z,6.90
2023-03-26T19:17:57.220Z,6.90
2023-03-26T19:20:38.138Z,6.90
2023-03-26T19:23:09.001Z,6.80
2023-03-26T19:25:55.447Z,6.80
2023-03-26T19:28:34.292Z,6.70
2023-03-26T19:31:33.901Z,6.70
2023-03-26T19:34:40.235Z,6.70
2023-03-26T19:37:32.508Z,6.80
2023-03-26T19:40:30.773Z,6.70
2023-03-26T19:42:59.026Z,6.60
2023-03-26T19:45:27.547Z,6.60
2023-03-26T19:48:07.754Z,6.60
2023-03-26T19:51:01.823Z,6.60
2023-03-26T19:53:43.180Z,6.50
2023-03-26T19:56:18.720Z,6.60
2023-03-26T19:58:46.671Z,6.50
2023-03-26T20:01:27.376Z,6.40
2023-03-26T20:04:04.331Z,6.40
2023-03-26T20:06:43.056Z,6.40
2023-03-26T20:09:13.648Z,6.50
2023-03-26T20:11:42.119Z,6.30
2023-03-26T20:14:26.260Z,6.40
2023-03-26T20:16:55.191Z,6.40
2023-03-26T20:19:24.049Z,6.30
2023-03-26T20:21:53.057Z,6.30
2023-03-26T20:24:21.892Z,6.20
2023-03-26T20:26:49.858Z,6.20
2023-03-26T20:29:20.000Z,6.20
2023-03-26T20:31:49.573Z,6.20
2023-03-26T20:34:24.724Z,6.10
2023-03-26T20:36:57.208Z,6.00
2023-03-26T20:39:29.570Z,5.90
2023-03-26T20:41:57.361Z,5.90
2023-03-26T20:44:27.263Z,5.90
2023-03-26T20:46:56.648Z,5.80
2023-03-26T20:49:25.128Z,5.80
2023-03-26T20:51:52.988Z,5.70
2023-03-26T20:54:30.309Z,5.60
2023-03-26T20:56:58.440Z,5.60
2023-03-26T20:59:30.047Z,5.50
2023-03-26T21:01:59.551Z,5.50
2023-03-26T21:04:27.783Z,5.40
2023-03-26T21:07:07.058Z,5.20
2023-03-26T21:09:39.761Z,5.10
2023-03-26T21:12:49.151Z,5.10
2023-03-26T21:15:23.578Z,5.00
2023-03-26T21:17:55.160Z,5.00
2023-03-26T21:20:30.034Z,4.90
2023-03-26T21:23:42.550Z,4.80
2023-03-26T21:26:30.484Z,4.70
2023-03-26T21:28:59.376Z,4.60
2023-03-26T21:31:31.132Z,4.60
2023-03-26T21:33:59.692Z,4.50
2023-03-26T21:36:28.481Z,4.50
2023-03-26T21:38:57.191Z,4.50
2023-03-26T21:41:47.944Z,4.60
2023-03-26T21:44:20.058Z,4.60
2023-03-26T21:46:49.991Z,4.50
2023-03-26T21:49:19.883Z,4.40
2023-03-26T21:51:48.941Z,4.30
2023-03-26T21:54:32.291Z,4.20
2023-03-26T21:57:47.281Z,4.10
2023-03-26T22:00:30.630Z,4.20
2023-03-26T22:03:46.904Z,4.20
2023-03-26T22:06:43.255Z,4.10
2023-03-26T22:09:18.530Z,4.10
2023-03-26T22:11:48.585Z,4.10
2023-03-26T22:14:16.248Z,4.10
2023-03-26T22:16:44.179Z,4.00
2023-03-26T22:19:14.148Z,4.00
2023-03-26T22:21:42.250Z,4.00
2023-03-26T22:24:10.074Z,4.00
2023-03-26T22:26:38.201Z,3.90
2023-03-26T22:29:07.400Z,3.80
2023-03-26T22:31:38.930Z,3.90
2023-03-26T22:34:08.047Z,3.80
2023-03-26T22:36:36.738Z,3.70
2023-03-26T22:39:07.654Z,3.70
2023-03-26T22:41:35.644Z,3.70
2023-03-26T22:44:16.892Z,3.60
2023-03-26T22:46:51.618Z,3.60
2023-03-26T22:49:20.075Z,3.60
2023-03-26T22:51:51.191Z,3.60
2023-03-26T22:54:19.687Z,3.60
2023-03-26T22:56:48.274Z,3.60
2023-03-26T22:59:15.934Z,3.70
2023-03-26T23:01:44.506Z,3.70
2023-03-26T23:04:12.374Z,3.70
2023-03-26T23:06:59.968Z,3.80
2023-03-26T23:09:27.729Z,3.90
2023-03-26T23:11:56.655Z,3.80
2023-03-26T23:14:24.611Z,3.80
2023-03-26T23:16:52.448Z,3.70
2023-03-26T23:19:20.279Z,3.50
2023-03-26T23:21:48.513Z,3.40
2023-03-26T23:24:17.110Z,3.30
2023-03-26T23:26:50.597Z,3.30
2023-03-26T23:29:19.620Z,3.30
2023-03-26T23:31:48.024Z,3.20
2023-03-26T23:34:17.253Z,3.10
2023-03-26T23:36:45.038Z,3.20
2023-03-26T23:39:13.044Z,3.10
2023-03-26T23:41:40.755Z,3.00
2023-03-26T23:44:13.611Z,2.90
2023-03-26T23:46:44.587Z,3.00
2023-03-26T23:49:12.326Z,3.00
2023-03-26T23:51:40.204Z,2.90
2023-03-26T23:54:08.959Z,2.90
2023-03-26T23:56:37.316Z,2.90
2023-03-26T23:59:06.219Z,2.90
